Latest Weather Observations for White Cliffs AWS

IDN60801

Issued at 10:35 am EST Wednesday 30 July 2014 (issued every 30 minutes, with the page automatically refreshed every 10 minutes)

About weather observations | Map of weather stations | Latest weather observations for NSW | Other Formats
Station Details ID: 046129 Name: WHITE CLIFFS AWS Lat: -30.85 Lon: 143.07 Height: 158.0 m
Data from the previous 72 hours. | See also: Recent months at White Cliffs AWS
Date/Time
EST
Temp
°C
App
Temp
°C
Dew
Point
Rel
Hum
%
Delta-T
°C
Wind Press
QNH
hPa
Press
MSL
hPa
Rain
since 9 am
mm
Dir
 
Spd
km/h
Gust
km/h
Spd
kts
Gust
kts
30/10:30am 18.3 15.5 3.0 36 7.1 WSW 7 11 4 6 1023.3 - 0.0
30/10:00am 17.0 14.0 2.2 37 6.7 W 7 9 4 5 1023.2 1023.3 0.0
30/09:30am 15.4 12.4 2.2 41 5.9 NNW 7 9 4 5 1023.0 - 0.0
30/09:00am 13.2 10.2 1.8 46 4.9 NNW 7 9 4 5 1022.8 1023.0 0.0
30/08:30am 11.3 7.8 1.5 51 4.2 NNW 9 11 5 6 1022.7 - 0.0
30/08:00am 9.3 5.4 1.2 57 3.3 N 11 15 6 8 1022.5 1022.7 0.0
30/07:30am 7.6 3.2 0.3 60 2.9 N 13 15 7 8 1022.4 - 0.0
30/07:00am 7.5 3.1 0.5 61 2.8 N 13 13 7 7 1022.0 1022.2 0.0
30/06:30am 6.8 2.3 -0.4 60 2.8 N 13 15 7 8 1021.7 - 0.0
30/06:00am 7.4 3.3 -0.5 57 3.1 N 11 13 6 7 1021.7 1021.8 0.0
30/05:30am 8.2 3.7 0.0 56 3.3 N 13 13 7 7 1021.5 - 0.0
30/05:00am 7.9 3.4 -0.3 56 3.2 N 13 15 7 8 1021.3 1021.4 0.0
30/04:30am 7.8 3.2 -0.9 54 3.4 NNW 13 15 7 8 1021.2 - 0.0
30/04:00am 8.5 3.6 -0.3 54 3.5 NNW 15 17 8 9 1021.1 1021.2 0.0
30/03:30am 8.2 3.3 -0.5 54 3.4 NNW 15 17 8 9 1021.1 - 0.0
30/03:00am 9.4 5.0 0.6 54 3.6 N 13 15 7 8 1021.0 1021.1 0.0
30/02:30am 9.1 5.1 0.3 54 3.6 N 11 13 6 7 1021.2 - 0.0
30/02:00am 9.0 5.2 -0.6 51 3.8 W 9 9 5 5 1021.3 1021.4 0.0
30/01:30am 11.0 7.9 1.3 51 4.1 WSW 7 9 4 5 1021.4 - 0.0
30/01:00am 10.1 6.4 0.2 50 4.0 SW 9 11 5 6 1021.4 1021.5 0.0
30/12:30am 9.3 5.5 -1.1 48 4.1 W 9 11 5 6 1021.3 - 0.0
30/12:00am 10.3 5.8 -0.2 48 4.2 W 13 13 7 7 1021.4 1021.5 0.0
 
Date/Time
EST
Temp
°C
App
Temp
°C
Dew
Point
Rel
Hum
%
Delta-T
°C
Wind Press
QNH
hPa
Press
MSL
hPa
Rain
since 9 am
mm
Dir
 
Spd
km/h
Gust
km/h
Spd
kts
Gust
kts
29/11:30pm 11.2 7.0 -0.6 44 4.8 W 11 11 6 6 1021.4 - 0.0
29/11:00pm 14.1 10.3 2.0 44 5.3 WSW 11 13 6 7 1021.1 1021.2 0.0
29/10:30pm 13.7 8.2 0.7 41 5.6 WSW 19 19 10 10 1021.2 - 0.0
29/10:00pm 12.6 7.6 -1.0 39 5.5 WSW 15 17 8 9 1021.2 1021.3 0.0
29/09:30pm 13.8 8.5 -0.3 38 5.9 W 17 17 9 9 1021.2 - 0.0
29/09:00pm 13.7 8.7 -1.5 35 6.2 W 15 17 8 9 1021.0 1021.1 0.0
29/08:30pm 14.1 9.0 -1.9 33 6.5 W 15 17 8 9 1020.9 - 0.0
29/08:00pm 14.5 9.8 -1.6 33 6.6 W 13 15 7 8 1020.6 1020.7 0.0
29/07:30pm 15.2 10.6 -1.4 32 6.9 WNW 13 13 7 7 1020.4 - 0.0
29/07:00pm 16.5 12.6 -1.6 29 7.5 W 9 11 5 6 1020.2 1020.3 0.0
29/06:30pm 17.8 13.2 -1.4 27 8.1 W 13 15 7 8 1019.9 - 0.0
29/06:00pm 20.4 14.7 -0.8 24 9.3 W 19 22 10 12 1019.6 1019.7 0.0
29/05:30pm 22.3 15.6 -1.1 21 10.4 WSW 24 32 13 17 1019.4 - 0.0
29/05:00pm 23.4 16.4 -0.8 20 10.9 W 26 33 14 18 1019.0 1019.1 0.0
29/04:30pm 23.7 16.3 -0.6 20 11.0 W 28 39 15 21 1018.8 - 0.0
29/04:00pm 24.1 16.8 -0.2 20 11.1 W 28 39 15 21 1018.6 1018.7 0.0
29/03:30pm 24.2 17.2 -0.2 20 11.2 W 26 37 14 20 1018.7 - 0.0
29/03:00pm 24.1 16.2 -1.7 18 11.5 W 30 39 16 21 1018.8 1018.9 0.0
29/02:30pm 24.1 15.9 -0.9 19 11.3 WNW 32 41 17 22 1018.8 - 0.0
29/02:00pm 23.9 15.7 -1.1 19 11.2 WNW 32 43 17 23 1019.2 1019.3 0.0
29/01:30pm 23.7 16.2 -1.3 19 11.2 WNW 28 37 15 20 1019.6 - 0.0
29/01:00pm 23.4 16.6 -1.5 19 11.0 W 24 28 13 15 1020.1 1020.2 0.0
29/12:30pm 23.1 15.5 -1.8 19 11.0 W 28 35 15 19 1020.8 - 0.0
29/12:00pm 22.5 14.9 -2.2 19 10.7 WNW 28 35 15 19 1021.0 1021.1 0.0
29/11:30am 22.0 14.8 -2.0 20 10.5 WNW 26 30 14 16 1021.3 - 0.0
29/11:00am 20.5 14.5 -1.9 22 9.6 NW 20 28 11 15 1021.3 1021.4 0.0
29/10:30am 18.5 12.0 -2.4 24 8.7 NW 22 26 12 14 1021.7 - 0.0
29/10:00am 16.7 11.1 -2.9 26 7.9 NNW 17 20 9 11 1021.9 1022.1 0.0
29/09:30am 14.9 9.3 -3.0 29 7.1 NNW 17 20 9 11 1022.0 - 0.0
29/09:00am 13.0 7.4 -3.3 32 6.3 NNW 17 24 9 13 1022.0 1022.2 0.0
29/08:30am 11.3 5.6 -3.6 35 5.6 N 17 20 9 11 1021.6 - 0.0
29/08:00am 9.2 3.9 -3.3 41 4.6 N 15 17 8 9 1021.5 1021.6 0.0
29/07:30am 8.2 2.9 -3.6 43 4.3 N 15 19 8 10 1021.3 - 0.0
29/07:00am 7.8 2.5 -3.7 44 4.1 N 15 17 8 9 1021.3 1021.4 0.0
29/06:30am 7.9 2.2 -3.6 44 4.2 N 17 19 9 10 1021.2 - 0.0
29/06:00am 7.4 1.7 -4.0 44 4.1 N 17 17 9 9 1020.9 1021.0 0.0
29/05:30am 6.8 1.4 -4.3 45 3.9 NNW 15 17 8 9 1020.6 - 0.0
29/05:00am 7.8 2.5 -4.0 43 4.2 N 15 15 8 8 1020.3 1020.4 0.0
29/04:30am 8.2 2.8 -4.2 41 4.5 NNW 15 17 8 9 1020.1 - 0.0
29/04:00am 9.2 3.5 -4.0 39 4.8 N 17 20 9 11 1020.0 1020.1 0.0
29/03:30am 8.7 3.0 -4.1 40 4.6 N 17 20 9 11 1020.0 - 0.0
29/03:00am 8.6 2.9 -3.9 41 4.5 NNW 17 17 9 9 1020.0 1020.1 0.0
29/02:30am 8.2 3.2 -4.2 41 4.5 N 13 15 7 8 1020.0 - 0.0
29/02:00am 7.7 1.9 -4.7 41 4.4 NNW 17 19 9 10 1019.9 1020.0 0.0
29/01:30am 7.4 1.2 -4.7 42 4.3 NNW 19 20 10 11 1019.9 - 0.0
29/01:00am 7.7 1.9 -4.7 41 4.4 N 17 17 9 9 1020.0 1020.1 0.0
29/12:30am 9.6 4.6 -4.7 36 5.2 N 13 17 7 9 1020.0 - 0.0
29/12:00am 10.7 5.7 -4.1 35 5.5 N 13 15 7 8 1020.2 1020.3 0.0
 
Date/Time
EST
Temp
°C
App
Temp
°C
Dew
Point
Rel
Hum
%
Delta-T
°C
Wind Press
QNH
hPa
Press
MSL
hPa
Rain
since 9 am
mm
Dir
 
Spd
km/h
Gust
km/h
Spd
kts
Gust
kts
28/11:30pm 11.1 6.1 -4.1 34 5.7 N 13 15 7 8 1020.4 - 0.0
28/11:00pm 11.9 6.2 -3.8 33 5.9 N 17 17 9 9 1020.3 1020.4 0.0
28/10:30pm 11.9 6.2 -3.8 33 5.9 N 17 19 9 10 1020.5 - 0.0
28/10:00pm 12.1 6.7 -4.1 32 6.1 N 15 17 8 9 1020.6 1020.7 0.0
28/09:30pm 12.3 7.0 -3.9 32 6.2 N 15 17 8 9 1020.5 - 0.0
28/09:00pm 12.4 6.7 -3.8 32 6.2 N 17 19 9 10 1020.3 1020.4 0.0
28/08:30pm 12.7 7.4 -4.0 31 6.4 N 15 17 8 9 1020.2 - 0.0
28/08:00pm 13.4 8.0 -4.2 29 6.7 N 15 15 8 8 1020.1 1020.2 0.0
28/07:30pm 14.3 9.0 -3.9 28 7.1 N 15 17 8 9 1019.9 - 0.0
28/07:00pm 15.1 9.7 -4.2 26 7.5 N 15 15 8 8 1019.6 1019.7 0.0
28/06:30pm 16.0 11.0 -4.5 24 8.0 N 13 13 7 7 1019.4 - 0.0
28/06:00pm 17.6 13.0 -4.3 22 8.7 N 11 13 6 7 1019.1 1019.2 0.0
28/05:30pm 20.0 15.0 -4.3 19 9.9 NNW 13 15 7 8 1019.1 - 0.0
28/05:00pm 21.0 15.2 -4.2 18 10.4 NW 17 20 9 11 1019.1 1019.2 0.0
28/04:30pm 21.0 15.2 -5.0 17 10.6 WNW 17 20 9 11 1019.2 - 0.0
28/04:00pm 21.2 15.8 -4.8 17 10.6 NNW 15 24 8 13 1019.1 1019.2 0.0
28/03:30pm 21.2 15.5 -4.0 18 10.5 NW 17 24 9 13 1019.4 - 0.0
28/03:00pm 21.4 15.3 -2.5 20 10.2 WNW 20 32 11 17 1019.6 1019.7 0.0
28/02:30pm 21.2 15.3 -2.6 20 10.2 WNW 19 28 10 15 1019.8 - 0.0
28/02:00pm 20.8 15.4 -1.7 22 9.7 W 17 26 9 14 1020.2 1020.3 0.0
28/01:30pm 20.6 14.2 -1.8 22 9.7 NW 22 32 12 17 1020.7 - 0.0
28/01:00pm 19.9 13.9 -1.8 23 9.3 NW 20 32 11 17 1021.3 1021.4 0.0
28/12:30pm 20.0 13.7 -1.2 24 9.2 NW 22 30 12 16 1021.9 - 0.0
28/12:00pm 19.7 13.8 -0.9 25 8.9 NW 20 33 11 18 1022.3 1022.5 0.0
28/11:30am 18.9 12.7 0.0 28 8.3 NW 22 28 12 15 1022.9 - 0.0
28/11:00am 18.1 12.9 0.3 30 7.8 NNW 17 20 9 11 1023.3 1023.4 0.0
28/10:30am 16.7 11.5 0.4 33 7.1 NNW 17 20 9 11 1023.6 - 0.0
28/10:00am 15.5 10.3 0.1 35 6.6 NNW 17 20 9 11 1023.5 1023.6 0.0
28/09:30am 14.6 9.5 0.5 38 6.0 N 17 20 9 11 1023.3 - 0.0
28/09:00am 13.2 8.8 0.6 42 5.3 N 13 17 7 9 1023.2 1023.3 0.0
28/08:30am 11.5 7.1 0.3 46 4.6 N 13 15 7 8 1023.0 - 0.0
28/08:00am 7.9 3.1 -0.1 57 3.1 N 15 17 8 9 1022.7 1022.9 0.0
28/07:30am 5.9 0.5 -1.0 61 2.6 N 17 17 9 9 1022.7 - 0.0
28/07:00am 5.2 0.5 -1.7 61 2.5 N 13 15 7 8 1022.7 1022.9 0.0
28/06:30am 5.5 1.2 -1.9 59 2.7 NNW 11 11 6 6 1022.7 - 0.0
28/06:00am 5.5 1.2 -1.4 61 2.6 NW 11 13 6 7 1022.7 1022.9 0.0
28/05:30am 4.4 -1.1 -2.4 61 2.4 WNW 17 19 9 10 1022.5 - 0.0
28/05:00am 6.4 2.1 -1.5 57 3.0 NNW 11 11 6 6 1022.4 1022.6 0.0
28/04:30am 8.8 4.4 0.3 55 3.4 N 13 15 7 8 1022.4 - 0.0
28/04:00am 8.1 3.6 -0.1 56 3.2 N 13 15 7 8 1022.3 1022.5 0.0
28/03:30am 8.4 3.9 -0.1 55 3.4 N 13 13 7 7 1022.3 - 0.0
28/03:00am 8.4 3.5 -0.4 54 3.5 N 15 15 8 8 1022.3 1022.5 0.0
28/02:30am 7.9 3.0 -0.6 55 3.3 N 15 15 8 8 1022.3 - 0.0
28/02:00am 7.4 2.0 -1.0 55 3.2 N 17 19 9 10 1022.3 1022.5 0.0
28/01:30am 8.1 3.1 -0.9 53 3.5 N 15 17 8 9 1022.6 - 0.0
28/01:00am 8.8 4.2 -1.0 50 3.8 N 13 13 7 7 1023.2 1023.3 0.0
28/12:30am 9.6 5.1 -0.3 50 4.0 NNW 13 15 7 8 1023.4 - 0.0
28/12:00am 8.5 3.9 -1.0 51 3.7 WNW 13 15 7 8 1023.9 1024.0 0.0
 
Date/Time
EST
Temp
°C
App
Temp
°C
Dew
Point
Rel
Hum
%
Delta-T
°C
Wind Press
QNH
hPa
Press
MSL
hPa
Rain
since 9 am
mm
Dir
 
Spd
km/h
Gust
km/h
Spd
kts
Gust
kts
27/11:30pm 8.7 4.7 -2.0 47 4.1 NNW 9 17 5 9 1023.9 - 0.0
27/11:00pm 12.1 8.9 0.8 46 4.7 NNE 7 11 4 6 1023.9 1024.0 0.0
27/10:30pm 11.6 7.2 0.4 46 4.7 N 13 15 7 8 1023.9 - 0.0
27/10:00pm 11.5 6.7 0.3 46 4.6 N 15 15 8 8 1023.8 1023.9 0.0
27/09:30pm 11.6 6.8 0.4 46 4.7 NNE 15 15 8 8 1023.8 - 0.0
27/09:00pm 11.9 7.1 0.1 44 4.9 NNE 15 17 8 9 1023.9 1024.0 0.0
27/08:30pm 12.7 8.6 0.1 42 5.3 N 11 11 6 6 1024.2 - 0.0
27/08:00pm 13.9 10.7 0.5 40 5.7 N 7 9 4 5 1024.4 1024.5 0.0
27/07:30pm 14.6 11.3 0.1 37 6.2 N 7 9 4 5 1024.3 - 0.0
27/07:00pm 15.2 12.0 0.6 37 6.3 N 7 7 4 4 1024.2 1024.3 0.0
27/06:30pm 16.6 14.8 1.1 35 6.9 CALM 0 0 0 0 1024.1 - 0.0
27/06:00pm 17.8 16.0 0.9 32 7.5 CALM 0 0 0 0 1024.0 1024.1 0.0
27/05:30pm 19.3 15.7 0.8 29 8.3 W 9 11 5 6 1023.7 - 0.0
27/05:00pm 19.8 16.3 1.3 29 8.4 WNW 9 13 5 7 1023.6 1023.7 0.0
27/04:30pm 19.9 16.4 1.4 29 8.5 NNW 9 13 5 7 1023.5 - 0.0
27/04:00pm 20.1 16.7 2.0 30 8.4 W 9 15 5 8 1023.6 1023.7 0.0
27/03:30pm 20.0 15.8 1.4 29 8.5 NW 13 19 7 10 1023.9 - 0.0
27/03:00pm 19.8 15.6 1.7 30 8.3 W 13 22 7 12 1024.0 1024.1 0.0
27/02:30pm 19.1 16.1 2.0 32 7.9 SW 7 15 4 8 1024.3 - 0.0
27/02:00pm 19.3 15.2 2.2 32 7.9 NNW 13 24 7 13 1024.6 1024.7 0.0
27/01:30pm 19.1 15.3 2.0 32 7.9 W 11 19 6 10 1025.2 - 0.0
27/01:00pm 18.8 14.7 2.2 33 7.6 NW 13 19 7 10 1025.7 1025.8 0.0
27/12:30pm 18.6 15.8 2.9 35 7.3 NE 7 15 4 8 1026.4 - 0.0
27/12:00pm 18.3 15.5 3.0 36 7.1 N 7 15 4 8 1027.0 1027.1 0.0
27/11:30am 18.4 15.3 3.5 37 7.0 ESE 9 17 5 9 1027.5 - 0.0
27/11:00am 17.3 14.3 3.9 41 6.3 ENE 9 13 5 7 1027.9 1028.1 0.0

Other Formats:

Comma delimited format used in spreadsheet applications
http://www.bom.gov.au/fwo/IDN60801/IDN60801.95699.axf

JavaScript Object Notation format (JSON) in row-major order
http://www.bom.gov.au/fwo/IDN60801/IDN60801.95699.json